sensor_id;sensor_type;location;lat;lon;timestamp;P1;durP1;ratioP1;P2;durP2;ratioP2
2191;SDS011;1102;49.718;11.902;2022-12-10T00:01:35;34.93;;;21.10;;
2191;SDS011;1102;49.718;11.902;2022-12-10T00:04:02;29.80;;;20.90;;
2191;SDS011;1102;49.718;11.902;2022-12-10T00:06:31;29.47;;;19.90;;
2191;SDS011;1102;49.718;11.902;2022-12-10T00:09:02;29.50;;;20.30;;
2191;SDS011;1102;49.718;11.902;2022-12-10T00:11:30;29.30;;;20.77;;
2191;SDS011;1102;49.718;11.902;2022-12-10T00:13:58;33.03;;;21.47;;
2191;SDS011;1102;49.718;11.902;2022-12-10T00:16:25;34.63;;;22.40;;
2191;SDS011;1102;49.718;11.902;2022-12-10T00:18:54;30.73;;;19.90;;
2191;SDS011;1102;49.718;11.902;2022-12-10T00:21:25;30.43;;;20.37;;
2191;SDS011;1102;49.718;11.902;2022-12-10T00:23:53;33.77;;;22.50;;
2191;SDS011;1102;49.718;11.902;2022-12-10T00:26:24;28.43;;;19.60;;
2191;SDS011;1102;49.718;11.902;2022-12-10T00:28:53;30.40;;;18.60;;
2191;SDS011;1102;49.718;11.902;2022-12-10T00:31:26;32.73;;;21.60;;
2191;SDS011;1102;49.718;11.902;2022-12-10T00:33:55;23.70;;;18.87;;
2191;SDS011;1102;49.718;11.902;2022-12-10T00:36:27;30.70;;;20.13;;
2191;SDS011;1102;49.718;11.902;2022-12-10T00:38:57;24.67;;;19.17;;
2191;SDS011;1102;49.718;11.902;2022-12-10T00:41:26;25.20;;;16.37;;
2191;SDS011;1102;49.718;11.902;2022-12-10T00:43:53;27.93;;;19.90;;
2191;SDS011;1102;49.718;11.902;2022-12-10T00:46:20;25.50;;;16.30;;
2191;SDS011;1102;49.718;11.902;2022-12-10T00:48:47;28.40;;;19.27;;
2191;SDS011;1102;49.718;11.902;2022-12-10T00:51:18;31.20;;;20.73;;
2191;SDS011;1102;49.718;11.902;2022-12-10T00:53:50;25.97;;;19.87;;
2191;SDS011;1102;49.718;11.902;2022-12-10T00:56:20;28.83;;;18.23;;
2191;SDS011;1102;49.718;11.902;2022-12-10T00:58:51;25.67;;;17.60;;
2191;SDS011;1102;49.718;11.902;2022-12-10T01:01:20;30.10;;;20.60;;
2191;SDS011;1102;49.718;11.902;2022-12-10T01:04:07;27.87;;;19.47;;
2191;SDS011;1102;49.718;11.902;2022-12-10T01:09:12;33.10;;;18.40;;
2191;SDS011;1102;49.718;11.902;2022-12-10T01:11:41;29.43;;;20.83;;
2191;SDS011;1102;49.718;11.902;2022-12-10T01:14:14;28.50;;;19.70;;
2191;SDS011;1102;49.718;11.902;2022-12-10T01:16:46;31.47;;;20.13;;
2191;SDS011;1102;49.718;11.902;2022-12-10T01:19:15;32.67;;;20.23;;
2191;SDS011;1102;49.718;11.902;2022-12-10T01:21:42;29.37;;;20.20;;
2191;SDS011;1102;49.718;11.902;2022-12-10T01:24:09;30.93;;;20.87;;
2191;SDS011;1102;49.718;11.902;2022-12-10T01:26:36;28.90;;;20.60;;
2191;SDS011;1102;49.718;11.902;2022-12-10T01:29:03;29.07;;;20.30;;
2191;SDS011;1102;49.718;11.902;2022-12-10T01:31:32;28.53;;;19.67;;
2191;SDS011;1102;49.718;11.902;2022-12-10T01:34:01;31.17;;;19.87;;
2191;SDS011;1102;49.718;11.902;2022-12-10T01:36:29;29.47;;;19.60;;
2191;SDS011;1102;49.718;11.902;2022-12-10T01:38:58;31.50;;;21.20;;
2191;SDS011;1102;49.718;11.902;2022-12-10T01:41:38;28.47;;;19.90;;
2191;SDS011;1102;49.718;11.902;2022-12-10T01:46:36;34.37;;;21.10;;
2191;SDS011;1102;49.718;11.902;2022-12-10T01:49:08;31.73;;;20.07;;
2191;SDS011;1102;49.718;11.902;2022-12-10T01:51:40;34.73;;;21.67;;
2191;SDS011;1102;49.718;11.902;2022-12-10T01:54:10;31.60;;;21.60;;
2191;SDS011;1102;49.718;11.902;2022-12-10T01:56:43;26.37;;;19.03;;
2191;SDS011;1102;49.718;11.902;2022-12-10T01:59:12;36.23;;;21.00;;
2191;SDS011;1102;49.718;11.902;2022-12-10T02:01:54;31.10;;;23.07;;
2191;SDS011;1102;49.718;11.902;2022-12-10T02:07:08;33.00;;;21.63;;
2191;SDS011;1102;49.718;11.902;2022-12-10T02:09:45;27.13;;;20.30;;
2191;SDS011;1102;49.718;11.902;2022-12-10T02:17:41;28.33;;;20.30;;
2191;SDS011;1102;49.718;11.902;2022-12-10T02:20:13;28.87;;;20.37;;
2191;SDS011;1102;49.718;11.902;2022-12-10T02:25:24;29.93;;;21.50;;
2191;SDS011;1102;49.718;11.902;2022-12-10T02:28:20;28.07;;;19.93;;
2191;SDS011;1102;49.718;11.902;2022-12-10T02:30:48;32.23;;;21.27;;
2191;SDS011;1102;49.718;11.902;2022-12-10T02:33:18;25.50;;;19.60;;
2191;SDS011;1102;49.718;11.902;2022-12-10T02:35:46;30.60;;;20.53;;
2191;SDS011;1102;49.718;11.902;2022-12-10T02:38:17;27.07;;;20.63;;
2191;SDS011;1102;49.718;11.902;2022-12-10T02:40:54;30.97;;;20.60;;
2191;SDS011;1102;49.718;11.902;2022-12-10T02:43:25;27.73;;;20.17;;
2191;SDS011;1102;49.718;11.902;2022-12-10T02:45:54;33.13;;;21.13;;
2191;SDS011;1102;49.718;11.902;2022-12-10T02:48:22;28.77;;;20.13;;
2191;SDS011;1102;49.718;11.902;2022-12-10T02:50:49;27.67;;;18.90;;
2191;SDS011;1102;49.718;11.902;2022-12-10T02:53:16;28.40;;;18.50;;
2191;SDS011;1102;49.718;11.902;2022-12-10T03:04:10;26.33;;;18.83;;
2191;SDS011;1102;49.718;11.902;2022-12-10T03:06:52;30.43;;;20.87;;
2191;SDS011;1102;49.718;11.902;2022-12-10T03:09:23;28.27;;;19.33;;
2191;SDS011;1102;49.718;11.902;2022-12-10T03:11:58;26.30;;;19.53;;
2191;SDS011;1102;49.718;11.902;2022-12-10T03:14:30;25.67;;;17.37;;
2191;SDS011;1102;49.718;11.902;2022-12-10T03:16:59;26.30;;;18.90;;
2191;SDS011;1102;49.718;11.902;2022-12-10T03:19:30;34.27;;;20.23;;
2191;SDS011;1102;49.718;11.902;2022-12-10T03:22:02;32.67;;;22.90;;
2191;SDS011;1102;49.718;11.902;2022-12-10T03:24:30;28.80;;;21.13;;
2191;SDS011;1102;49.718;11.902;2022-12-10T03:26:59;25.57;;;19.30;;
2191;SDS011;1102;49.718;11.902;2022-12-10T03:29:27;33.83;;;21.37;;
2191;SDS011;1102;49.718;11.902;2022-12-10T03:31:58;32.30;;;20.37;;
2191;SDS011;1102;49.718;11.902;2022-12-10T03:34:25;28.57;;;18.70;;
2191;SDS011;1102;49.718;11.902;2022-12-10T03:36:52;31.17;;;20.83;;
2191;SDS011;1102;49.718;11.902;2022-12-10T03:39:20;29.23;;;19.50;;
2191;SDS011;1102;49.718;11.902;2022-12-10T03:41:47;31.70;;;21.60;;
2191;SDS011;1102;49.718;11.902;2022-12-10T03:44:20;29.37;;;19.23;;
2191;SDS011;1102;49.718;11.902;2022-12-10T03:46:57;27.50;;;20.33;;
2191;SDS011;1102;49.718;11.902;2022-12-10T03:49:24;25.00;;;17.60;;
2191;SDS011;1102;49.718;11.902;2022-12-10T03:51:51;26.47;;;19.83;;
2191;SDS011;1102;49.718;11.902;2022-12-10T03:54:18;29.17;;;18.83;;
2191;SDS011;1102;49.718;11.902;2022-12-10T03:56:45;23.93;;;17.20;;
2191;SDS011;1102;49.718;11.902;2022-12-10T03:59:12;26.23;;;20.00;;
2191;SDS011;1102;49.718;11.902;2022-12-10T04:01:40;25.10;;;19.27;;
2191;SDS011;1102;49.718;11.902;2022-12-10T04:04:08;30.57;;;19.70;;
2191;SDS011;1102;49.718;11.902;2022-12-10T04:06:37;29.83;;;19.80;;
2191;SDS011;1102;49.718;11.902;2022-12-10T04:09:04;26.83;;;18.30;;
2191;SDS011;1102;49.718;11.902;2022-12-10T04:11:32;27.20;;;18.97;;
2191;SDS011;1102;49.718;11.902;2022-12-10T04:13:58;28.53;;;19.30;;
2191;SDS011;1102;49.718;11.902;2022-12-10T04:16:45;29.13;;;17.57;;
2191;SDS011;1102;49.718;11.902;2022-12-10T04:19:15;30.33;;;19.37;;
2191;SDS011;1102;49.718;11.902;2022-12-10T04:21:44;25.73;;;19.53;;
2191;SDS011;1102;49.718;11.902;2022-12-10T04:24:31;30.97;;;19.80;;
2191;SDS011;1102;49.718;11.902;2022-12-10T04:27:29;25.33;;;18.33;;
2191;SDS011;1102;49.718;11.902;2022-12-10T04:29:59;24.90;;;19.33;;
2191;SDS011;1102;49.718;11.902;2022-12-10T04:32:27;30.23;;;20.57;;
2191;SDS011;1102;49.718;11.902;2022-12-10T04:34:55;29.83;;;18.67;;
2191;SDS011;1102;49.718;11.902;2022-12-10T04:37:22;29.20;;;19.10;;
2191;SDS011;1102;49.718;11.902;2022-12-10T04:39:50;27.00;;;19.07;;
2191;SDS011;1102;49.718;11.902;2022-12-10T04:42:18;28.07;;;18.47;;
2191;SDS011;1102;49.718;11.902;2022-12-10T04:44:45;28.93;;;21.50;;
2191;SDS011;1102;49.718;11.902;2022-12-10T04:47:13;30.23;;;19.07;;
2191;SDS011;1102;49.718;11.902;2022-12-10T04:49:40;29.70;;;19.10;;
2191;SDS011;1102;49.718;11.902;2022-12-10T04:52:07;25.57;;;18.70;;
2191;SDS011;1102;49.718;11.902;2022-12-10T04:54:36;33.33;;;20.67;;
2191;SDS011;1102;49.718;11.902;2022-12-10T04:57:05;27.50;;;19.07;;
2191;SDS011;1102;49.718;11.902;2022-12-10T04:59:32;31.13;;;20.70;;
2191;SDS011;1102;49.718;11.902;2022-12-10T05:02:00;28.43;;;19.13;;
2191;SDS011;1102;49.718;11.902;2022-12-10T05:04:27;28.50;;;20.53;;
2191;SDS011;1102;49.718;11.902;2022-12-10T05:06:54;30.37;;;20.50;;
2191;SDS011;1102;49.718;11.902;2022-12-10T05:09:20;26.40;;;18.37;;
2191;SDS011;1102;49.718;11.902;2022-12-10T05:11:49;31.60;;;20.47;;
2191;SDS011;1102;49.718;11.902;2022-12-10T05:14:15;28.33;;;18.87;;
2191;SDS011;1102;49.718;11.902;2022-12-10T05:16:42;33.47;;;20.20;;
2191;SDS011;1102;49.718;11.902;2022-12-10T05:19:09;26.63;;;19.67;;
2191;SDS011;1102;49.718;11.902;2022-12-10T05:21:36;30.77;;;20.20;;
2191;SDS011;1102;49.718;11.902;2022-12-10T05:24:22;28.57;;;18.93;;
2191;SDS011;1102;49.718;11.902;2022-12-10T05:26:48;34.27;;;20.73;;
2191;SDS011;1102;49.718;11.902;2022-12-10T05:29:18;31.97;;;19.20;;
2191;SDS011;1102;49.718;11.902;2022-12-10T05:31:45;28.93;;;20.27;;
2191;SDS011;1102;49.718;11.902;2022-12-10T05:34:12;33.47;;;19.70;;
2191;SDS011;1102;49.718;11.902;2022-12-10T05:36:39;32.23;;;20.43;;
2191;SDS011;1102;49.718;11.902;2022-12-10T05:39:06;31.07;;;19.00;;
2191;SDS011;1102;49.718;11.902;2022-12-10T05:41:36;24.70;;;17.90;;
2191;SDS011;1102;49.718;11.902;2022-12-10T05:44:05;34.23;;;19.30;;
2191;SDS011;1102;49.718;11.902;2022-12-10T05:46:34;26.67;;;19.80;;
2191;SDS011;1102;49.718;11.902;2022-12-10T05:49:01;25.40;;;19.73;;
2191;SDS011;1102;49.718;11.902;2022-12-10T05:51:30;26.87;;;18.10;;
2191;SDS011;1102;49.718;11.902;2022-12-10T05:53:58;28.23;;;19.70;;
2191;SDS011;1102;49.718;11.902;2022-12-10T05:56:27;26.00;;;20.40;;
2191;SDS011;1102;49.718;11.902;2022-12-10T05:58:56;32.07;;;19.00;;
2191;SDS011;1102;49.718;11.902;2022-12-10T06:01:26;28.10;;;20.17;;
2191;SDS011;1102;49.718;11.902;2022-12-10T06:03:54;30.60;;;20.60;;
2191;SDS011;1102;49.718;11.902;2022-12-10T06:06:28;32.30;;;21.90;;
2191;SDS011;1102;49.718;11.902;2022-12-10T06:08:56;30.67;;;20.80;;
2191;SDS011;1102;49.718;11.902;2022-12-10T06:11:23;29.77;;;20.50;;
2191;SDS011;1102;49.718;11.902;2022-12-10T06:13:52;33.80;;;22.00;;
2191;SDS011;1102;49.718;11.902;2022-12-10T06:16:22;31.30;;;21.87;;
2191;SDS011;1102;49.718;11.902;2022-12-10T06:18:50;31.40;;;21.30;;
2191;SDS011;1102;49.718;11.902;2022-12-10T06:21:17;29.87;;;21.60;;
2191;SDS011;1102;49.718;11.902;2022-12-10T06:23:45;33.20;;;23.70;;
2191;SDS011;1102;49.718;11.902;2022-12-10T06:26:14;25.83;;;20.40;;
2191;SDS011;1102;49.718;11.902;2022-12-10T06:28:44;32.10;;;21.87;;
2191;SDS011;1102;49.718;11.902;2022-12-10T06:31:12;32.23;;;21.40;;
2191;SDS011;1102;49.718;11.902;2022-12-10T06:33:39;36.73;;;23.50;;
2191;SDS011;1102;49.718;11.902;2022-12-10T06:36:07;34.37;;;22.03;;
2191;SDS011;1102;49.718;11.902;2022-12-10T06:38:35;36.57;;;23.37;;
2191;SDS011;1102;49.718;11.902;2022-12-10T06:41:06;47.20;;;25.40;;
2191;SDS011;1102;49.718;11.902;2022-12-10T06:43:34;35.13;;;23.23;;
2191;SDS011;1102;49.718;11.902;2022-12-10T06:46:05;40.40;;;25.50;;
2191;SDS011;1102;49.718;11.902;2022-12-10T06:48:34;31.90;;;21.00;;
2191;SDS011;1102;49.718;11.902;2022-12-10T06:51:02;32.30;;;24.90;;
2191;SDS011;1102;49.718;11.902;2022-12-10T06:53:30;28.23;;;19.53;;
2191;SDS011;1102;49.718;11.902;2022-12-10T06:55:58;37.13;;;22.70;;
2191;SDS011;1102;49.718;11.902;2022-12-10T06:58:29;33.60;;;21.67;;
2191;SDS011;1102;49.718;11.902;2022-12-10T07:03:29;34.90;;;23.90;;
2191;SDS011;1102;49.718;11.902;2022-12-10T07:05:57;32.43;;;23.97;;
2191;SDS011;1102;49.718;11.902;2022-12-10T07:08:25;65.03;;;39.23;;
2191;SDS011;1102;49.718;11.902;2022-12-10T07:10:52;42.67;;;31.40;;
2191;SDS011;1102;49.718;11.902;2022-12-10T07:13:18;32.23;;;22.90;;
2191;SDS011;1102;49.718;11.902;2022-12-10T07:15:48;30.23;;;25.13;;
2191;SDS011;1102;49.718;11.902;2022-12-10T07:18:15;35.23;;;24.00;;
2191;SDS011;1102;49.718;11.902;2022-12-10T07:20:42;32.87;;;21.90;;
2191;SDS011;1102;49.718;11.902;2022-12-10T07:23:08;28.63;;;20.93;;
2191;SDS011;1102;49.718;11.902;2022-12-10T07:25:35;25.80;;;20.70;;
2191;SDS011;1102;49.718;11.902;2022-12-10T07:28:02;31.60;;;23.20;;
2191;SDS011;1102;49.718;11.902;2022-12-10T07:30:28;28.90;;;23.90;;
2191;SDS011;1102;49.718;11.902;2022-12-10T07:32:55;29.00;;;22.67;;
2191;SDS011;1102;49.718;11.902;2022-12-10T07:35:22;31.67;;;23.50;;
2191;SDS011;1102;49.718;11.902;2022-12-10T07:37:48;33.40;;;24.47;;
2191;SDS011;1102;49.718;11.902;2022-12-10T07:40:15;36.83;;;25.70;;
2191;SDS011;1102;49.718;11.902;2022-12-10T07:42:42;34.93;;;22.53;;
2191;SDS011;1102;49.718;11.902;2022-12-10T07:45:08;35.97;;;22.37;;
2191;SDS011;1102;49.718;11.902;2022-12-10T07:47:36;32.43;;;20.60;;
2191;SDS011;1102;49.718;11.902;2022-12-10T07:50:05;26.90;;;20.03;;
2191;SDS011;1102;49.718;11.902;2022-12-10T07:52:33;34.63;;;20.23;;
2191;SDS011;1102;49.718;11.902;2022-12-10T07:54:59;33.50;;;20.70;;
2191;SDS011;1102;49.718;11.902;2022-12-10T07:57:27;37.60;;;24.57;;
2191;SDS011;1102;49.718;11.902;2022-12-10T07:59:55;30.27;;;21.03;;
2191;SDS011;1102;49.718;11.902;2022-12-10T08:02:22;34.53;;;22.50;;
2191;SDS011;1102;49.718;11.902;2022-12-10T08:04:49;32.80;;;24.37;;
2191;SDS011;1102;49.718;11.902;2022-12-10T08:07:15;36.40;;;22.43;;
2191;SDS011;1102;49.718;11.902;2022-12-10T08:09:42;86.00;;;59.27;;
2191;SDS011;1102;49.718;11.902;2022-12-10T08:12:09;31.00;;;23.10;;
2191;SDS011;1102;49.718;11.902;2022-12-10T08:14:35;32.00;;;21.73;;
2191;SDS011;1102;49.718;11.902;2022-12-10T08:17:02;29.07;;;22.57;;
2191;SDS011;1102;49.718;11.902;2022-12-10T08:19:29;34.10;;;28.07;;
2191;SDS011;1102;49.718;11.902;2022-12-10T08:21:57;41.27;;;26.80;;
2191;SDS011;1102;49.718;11.902;2022-12-10T08:24:24;46.67;;;32.03;;
2191;SDS011;1102;49.718;11.902;2022-12-10T08:26:50;32.13;;;24.87;;
2191;SDS011;1102;49.718;11.902;2022-12-10T08:29:17;33.07;;;21.23;;
2191;SDS011;1102;49.718;11.902;2022-12-10T08:31:44;33.23;;;21.40;;
2191;SDS011;1102;49.718;11.902;2022-12-10T08:34:12;40.53;;;26.93;;
2191;SDS011;1102;49.718;11.902;2022-12-10T08:36:40;38.07;;;24.50;;
2191;SDS011;1102;49.718;11.902;2022-12-10T08:39:07;67.27;;;58.67;;
2191;SDS011;1102;49.718;11.902;2022-12-10T08:41:36;48.80;;;37.83;;
2191;SDS011;1102;49.718;11.902;2022-12-10T08:44:03;48.63;;;40.30;;
2191;SDS011;1102;49.718;11.902;2022-12-10T08:46:30;33.00;;;27.60;;
2191;SDS011;1102;49.718;11.902;2022-12-10T08:48:56;33.73;;;25.07;;
2191;SDS011;1102;49.718;11.902;2022-12-10T08:51:23;37.83;;;29.17;;
2191;SDS011;1102;49.718;11.902;2022-12-10T08:53:50;31.83;;;22.90;;
2191;SDS011;1102;49.718;11.902;2022-12-10T08:56:17;32.23;;;24.03;;
2191;SDS011;1102;49.718;11.902;2022-12-10T08:58:43;31.70;;;23.10;;
2191;SDS011;1102;49.718;11.902;2022-12-10T09:01:14;30.70;;;20.93;;
2191;SDS011;1102;49.718;11.902;2022-12-10T09:03:42;33.17;;;21.07;;
2191;SDS011;1102;49.718;11.902;2022-12-10T09:06:12;28.17;;;20.00;;
2191;SDS011;1102;49.718;11.902;2022-12-10T09:08:43;29.10;;;20.70;;
2191;SDS011;1102;49.718;11.902;2022-12-10T09:11:12;32.37;;;21.20;;
2191;SDS011;1102;49.718;11.902;2022-12-10T09:13:41;35.70;;;23.10;;
2191;SDS011;1102;49.718;11.902;2022-12-10T09:16:08;31.57;;;21.93;;
2191;SDS011;1102;49.718;11.902;2022-12-10T09:18:35;31.60;;;21.23;;
2191;SDS011;1102;49.718;11.902;2022-12-10T09:21:09;36.80;;;21.27;;
2191;SDS011;1102;49.718;11.902;2022-12-10T09:23:38;34.50;;;21.47;;
2191;SDS011;1102;49.718;11.902;2022-12-10T09:26:06;29.63;;;21.97;;
2191;SDS011;1102;49.718;11.902;2022-12-10T09:28:35;30.33;;;20.77;;
2191;SDS011;1102;49.718;11.902;2022-12-10T09:31:03;33.23;;;22.10;;
2191;SDS011;1102;49.718;11.902;2022-12-10T09:33:39;31.20;;;22.30;;
2191;SDS011;1102;49.718;11.902;2022-12-10T09:36:08;29.37;;;20.07;;
2191;SDS011;1102;49.718;11.902;2022-12-10T09:38:39;35.60;;;24.33;;
2191;SDS011;1102;49.718;11.902;2022-12-10T09:51:34;45.83;;;21.90;;
2191;SDS011;1102;49.718;11.902;2022-12-10T09:54:25;33.83;;;21.80;;
2191;SDS011;1102;49.718;11.902;2022-12-10T09:56:55;36.90;;;23.90;;
2191;SDS011;1102;49.718;11.902;2022-12-10T09:59:26;35.30;;;20.77;;
2191;SDS011;1102;49.718;11.902;2022-12-10T10:02:20;35.90;;;23.17;;
2191;SDS011;1102;49.718;11.902;2022-12-10T10:04:48;29.60;;;20.60;;
2191;SDS011;1102;49.718;11.902;2022-12-10T10:07:19;26.87;;;19.97;;
2191;SDS011;1102;49.718;11.902;2022-12-10T10:09:50;30.60;;;20.70;;
2191;SDS011;1102;49.718;11.902;2022-12-10T10:12:21;34.57;;;21.97;;
2191;SDS011;1102;49.718;11.902;2022-12-10T10:14:47;30.33;;;22.30;;
2191;SDS011;1102;49.718;11.902;2022-12-10T10:17:22;36.67;;;22.80;;
2191;SDS011;1102;49.718;11.902;2022-12-10T10:19:58;37.30;;;23.20;;
2191;SDS011;1102;49.718;11.902;2022-12-10T10:22:25;27.30;;;19.87;;
2191;SDS011;1102;49.718;11.902;2022-12-10T10:24:52;30.17;;;21.50;;
2191;SDS011;1102;49.718;11.902;2022-12-10T10:27:20;27.07;;;21.13;;
2191;SDS011;1102;49.718;11.902;2022-12-10T10:29:50;25.40;;;21.70;;
2191;SDS011;1102;49.718;11.902;2022-12-10T10:35:03;34.03;;;21.77;;
2191;SDS011;1102;49.718;11.902;2022-12-10T10:37:38;29.97;;;21.10;;
2191;SDS011;1102;49.718;11.902;2022-12-10T10:40:23;30.53;;;21.20;;
2191;SDS011;1102;49.718;11.902;2022-12-10T10:42:55;29.13;;;21.60;;
2191;SDS011;1102;49.718;11.902;2022-12-10T10:50:48;26.43;;;16.40;;
2191;SDS011;1102;49.718;11.902;2022-12-10T10:53:32;26.23;;;16.60;;
2191;SDS011;1102;49.718;11.902;2022-12-10T10:56:07;22.33;;;16.97;;
2191;SDS011;1102;49.718;11.902;2022-12-10T10:58:35;23.03;;;16.47;;
2191;SDS011;1102;49.718;11.902;2022-12-10T11:01:13;21.67;;;15.37;;
2191;SDS011;1102;49.718;11.902;2022-12-10T11:03:44;21.47;;;15.77;;
2191;SDS011;1102;49.718;11.902;2022-12-10T11:06:13;21.77;;;14.40;;
2191;SDS011;1102;49.718;11.902;2022-12-10T11:08:41;21.30;;;16.50;;
2191;SDS011;1102;49.718;11.902;2022-12-10T11:11:20;19.87;;;13.63;;
2191;SDS011;1102;49.718;11.902;2022-12-10T11:13:51;20.63;;;15.10;;
2191;SDS011;1102;49.718;11.902;2022-12-10T11:16:20;24.53;;;16.70;;
2191;SDS011;1102;49.718;11.902;2022-12-10T11:21:29;23.77;;;17.40;;
2191;SDS011;1102;49.718;11.902;2022-12-10T11:23:57;31.33;;;24.57;;
2191;SDS011;1102;49.718;11.902;2022-12-10T11:51:04;34.70;;;21.50;;
2191;SDS011;1102;49.718;11.902;2022-12-10T12:03:55;30.10;;;19.13;;
2191;SDS011;1102;49.718;11.902;2022-12-10T12:14:36;26.60;;;18.87;;
2191;SDS011;1102;49.718;11.902;2022-12-10T12:17:30;32.00;;;22.40;;
2191;SDS011;1102;49.718;11.902;2022-12-10T12:22:51;29.93;;;23.17;;
2191;SDS011;1102;49.718;11.902;2022-12-10T12:25:31;30.50;;;24.07;;
2191;SDS011;1102;49.718;11.902;2022-12-10T12:28:04;31.27;;;21.60;;
2191;SDS011;1102;49.718;11.902;2022-12-10T12:30:38;32.67;;;23.07;;
2191;SDS011;1102;49.718;11.902;2022-12-10T12:35:48;32.87;;;23.27;;
2191;SDS011;1102;49.718;11.902;2022-12-10T12:38:29;34.63;;;23.73;;
2191;SDS011;1102;49.718;11.902;2022-12-10T12:41:05;28.67;;;19.80;;
2191;SDS011;1102;49.718;11.902;2022-12-10T12:43:51;30.60;;;20.30;;
2191;SDS011;1102;49.718;11.902;2022-12-10T12:46:30;26.70;;;18.30;;
2191;SDS011;1102;49.718;11.902;2022-12-10T12:49:14;62.33;;;24.53;;
2191;SDS011;1102;49.718;11.902;2022-12-10T12:51:45;28.73;;;20.37;;
2191;SDS011;1102;49.718;11.902;2022-12-10T12:54:15;29.57;;;18.93;;
2191;SDS011;1102;49.718;11.902;2022-12-10T13:05:02;29.23;;;20.17;;
2191;SDS011;1102;49.718;11.902;2022-12-10T13:07:31;29.00;;;19.43;;
2191;SDS011;1102;49.718;11.902;2022-12-10T13:12:49;30.30;;;18.63;;
2191;SDS011;1102;49.718;11.902;2022-12-10T13:15:35;31.30;;;19.73;;
2191;SDS011;1102;49.718;11.902;2022-12-10T13:20:45;29.97;;;21.60;;
2191;SDS011;1102;49.718;11.902;2022-12-10T13:31:37;25.60;;;18.00;;
2191;SDS011;1102;49.718;11.902;2022-12-10T13:41:37;28.50;;;22.03;;
2191;SDS011;1102;49.718;11.902;2022-12-10T13:44:35;20.90;;;17.23;;
2191;SDS011;1102;49.718;11.902;2022-12-10T13:47:25;31.63;;;18.20;;
2191;SDS011;1102;49.718;11.902;2022-12-10T13:50:32;22.40;;;16.37;;
2191;SDS011;1102;49.718;11.902;2022-12-10T13:55:49;25.40;;;17.55;;
2191;SDS011;1102;49.718;11.902;2022-12-10T14:06:21;24.53;;;17.33;;
2191;SDS011;1102;49.718;11.902;2022-12-10T14:08:57;23.00;;;19.37;;
2191;SDS011;1102;49.718;11.902;2022-12-10T14:11:36;24.50;;;18.40;;
2191;SDS011;1102;49.718;11.902;2022-12-10T14:14:13;25.50;;;17.57;;
2191;SDS011;1102;49.718;11.902;2022-12-10T14:16:49;31.70;;;18.67;;
2191;SDS011;1102;49.718;11.902;2022-12-10T14:19:22;26.50;;;18.10;;
2191;SDS011;1102;49.718;11.902;2022-12-10T14:21:53;24.17;;;17.37;;
2191;SDS011;1102;49.718;11.902;2022-12-10T14:26:59;25.10;;;17.83;;
2191;SDS011;1102;49.718;11.902;2022-12-10T14:29:29;31.13;;;18.70;;
2191;SDS011;1102;49.718;11.902;2022-12-10T14:31:56;27.57;;;17.03;;
2191;SDS011;1102;49.718;11.902;2022-12-10T14:34:26;38.13;;;19.57;;
2191;SDS011;1102;49.718;11.902;2022-12-10T14:36:56;30.20;;;18.47;;
2191;SDS011;1102;49.718;11.902;2022-12-10T14:39:28;21.37;;;15.17;;
2191;SDS011;1102;49.718;11.902;2022-12-10T14:41:59;25.00;;;15.37;;
2191;SDS011;1102;49.718;11.902;2022-12-10T14:44:29;22.20;;;15.40;;
2191;SDS011;1102;49.718;11.902;2022-12-10T14:47:12;26.33;;;16.83;;
2191;SDS011;1102;49.718;11.902;2022-12-10T14:49:43;23.00;;;16.93;;
2191;SDS011;1102;49.718;11.902;2022-12-10T14:52:16;30.47;;;19.37;;
2191;SDS011;1102;49.718;11.902;2022-12-10T14:54:47;36.63;;;21.43;;
2191;SDS011;1102;49.718;11.902;2022-12-10T14:57:21;96.77;;;56.23;;
2191;SDS011;1102;49.718;11.902;2022-12-10T14:59:57;78.37;;;40.90;;
2191;SDS011;1102;49.718;11.902;2022-12-10T15:02:30;108.63;;;66.43;;
2191;SDS011;1102;49.718;11.902;2022-12-10T15:05:00;171.43;;;116.47;;
2191;SDS011;1102;49.718;11.902;2022-12-10T15:07:31;57.77;;;43.40;;
2191;SDS011;1102;49.718;11.902;2022-12-10T15:10:07;39.90;;;25.50;;
2191;SDS011;1102;49.718;11.902;2022-12-10T15:12:50;23.13;;;18.73;;
2191;SDS011;1102;49.718;11.902;2022-12-10T15:20:51;23.40;;;15.60;;
2191;SDS011;1102;49.718;11.902;2022-12-10T15:28:25;26.10;;;14.07;;
2191;SDS011;1102;49.718;11.902;2022-12-10T15:30:54;24.40;;;17.30;;
2191;SDS011;1102;49.718;11.902;2022-12-10T15:33:34;27.10;;;14.63;;
2191;SDS011;1102;49.718;11.902;2022-12-10T15:36:04;20.40;;;14.33;;
2191;SDS011;1102;49.718;11.902;2022-12-10T15:38:31;20.67;;;13.67;;
2191;SDS011;1102;49.718;11.902;2022-12-10T15:40:59;23.47;;;15.80;;
2191;SDS011;1102;49.718;11.902;2022-12-10T15:44:04;21.83;;;14.57;;
2191;SDS011;1102;49.718;11.902;2022-12-10T15:46:32;26.17;;;18.60;;
2191;SDS011;1102;49.718;11.902;2022-12-10T15:48:59;23.10;;;15.30;;
2191;SDS011;1102;49.718;11.902;2022-12-10T15:51:26;23.53;;;15.23;;
2191;SDS011;1102;49.718;11.902;2022-12-10T15:53:52;22.33;;;15.10;;
2191;SDS011;1102;49.718;11.902;2022-12-10T15:56:19;24.93;;;15.87;;
2191;SDS011;1102;49.718;11.902;2022-12-10T15:58:46;25.30;;;16.97;;
2191;SDS011;1102;49.718;11.902;2022-12-10T16:01:13;24.37;;;14.90;;
2191;SDS011;1102;49.718;11.902;2022-12-10T16:03:40;22.67;;;14.47;;
2191;SDS011;1102;49.718;11.902;2022-12-10T16:06:07;18.33;;;13.00;;
2191;SDS011;1102;49.718;11.902;2022-12-10T16:08:34;21.70;;;13.40;;
2191;SDS011;1102;49.718;11.902;2022-12-10T16:11:06;24.90;;;14.20;;
2191;SDS011;1102;49.718;11.902;2022-12-10T16:13:47;17.47;;;11.77;;
2191;SDS011;1102;49.718;11.902;2022-12-10T16:16:17;18.27;;;12.30;;
2191;SDS011;1102;49.718;11.902;2022-12-10T16:18:44;15.27;;;10.40;;
2191;SDS011;1102;49.718;11.902;2022-12-10T16:21:11;20.83;;;12.67;;
2191;SDS011;1102;49.718;11.902;2022-12-10T16:23:38;19.43;;;13.23;;
2191;SDS011;1102;49.718;11.902;2022-12-10T16:28:38;16.37;;;10.43;;
2191;SDS011;1102;49.718;11.902;2022-12-10T16:31:07;23.43;;;13.40;;
2191;SDS011;1102;49.718;11.902;2022-12-10T16:33:37;21.30;;;12.07;;
2191;SDS011;1102;49.718;11.902;2022-12-10T16:36:04;25.20;;;14.03;;
2191;SDS011;1102;49.718;11.902;2022-12-10T16:38:31;20.40;;;11.57;;
2191;SDS011;1102;49.718;11.902;2022-12-10T16:40:58;19.43;;;11.67;;
2191;SDS011;1102;49.718;11.902;2022-12-10T16:43:26;19.27;;;13.77;;
2191;SDS011;1102;49.718;11.902;2022-12-10T16:45:54;19.77;;;11.43;;
2191;SDS011;1102;49.718;11.902;2022-12-10T16:48:21;16.00;;;11.17;;
2191;SDS011;1102;49.718;11.902;2022-12-10T16:50:49;16.87;;;12.23;;
2191;SDS011;1102;49.718;11.902;2022-12-10T16:55:52;18.30;;;11.03;;
2191;SDS011;1102;49.718;11.902;2022-12-10T16:58:20;13.43;;;10.50;;
2191;SDS011;1102;49.718;11.902;2022-12-10T17:00:51;16.63;;;11.03;;
2191;SDS011;1102;49.718;11.902;2022-12-10T17:03:20;13.83;;;10.53;;
2191;SDS011;1102;49.718;11.902;2022-12-10T17:05:55;18.03;;;10.90;;
2191;SDS011;1102;49.718;11.902;2022-12-10T17:08:25;15.90;;;11.10;;
2191;SDS011;1102;49.718;11.902;2022-12-10T17:10:53;16.10;;;11.00;;
2191;SDS011;1102;49.718;11.902;2022-12-10T17:13:39;21.30;;;12.70;;
2191;SDS011;1102;49.718;11.902;2022-12-10T17:16:15;16.33;;;11.37;;
2191;SDS011;1102;49.718;11.902;2022-12-10T17:18:47;16.20;;;10.47;;
2191;SDS011;1102;49.718;11.902;2022-12-10T17:21:14;15.33;;;9.73;;
2191;SDS011;1102;49.718;11.902;2022-12-10T17:23:40;17.67;;;10.60;;
2191;SDS011;1102;49.718;11.902;2022-12-10T17:26:08;15.03;;;11.70;;
2191;SDS011;1102;49.718;11.902;2022-12-10T17:28:46;20.23;;;12.20;;